This is the latest recevied weather packets stored in our database for station/object KC3ULW-13. If no packets are shown the sender has not sent any weather packets the latest 10 day(s).
| Time | Temp. | Humidity | Pressure | Rain* | Wind** | Luminosity | Snow |
|---|---|---|---|---|---|---|---|
| 1777837465 | 14.44° C | 37% | 1017.4 hPa | 0 mm | - | 162 W/m² | - |
| 1777837160 | 15.56° C | 37% | 1017.3 hPa | 0 mm | - | 165 W/m² | - |
| 1777836856 | 15° C | 36% | 1017.1 hPa | 0 mm | - | 677 W/m² | - |
| 1777836552 | 15.56° C | 36% | 1017.4 hPa | 0 mm | - | 186 W/m² | - |
| 1777836248 | 14.44° C | 40% | 1017.4 hPa | 0 mm | - | 667 W/m² | - |
| 1777835944 | 15° C | 38% | 1017.7 hPa | 0 mm | - | 182 W/m² | - |
| 1777835642 | 15° C | 38% | 1017.6 hPa | 0 mm | - | 217 W/m² | - |
| 1777835338 | 16.11° C | 37% | 1017.8 hPa | 0 mm | - | 728 W/m² | - |
| 1777835035 | 16.11° C | 35% | 1017.7 hPa | 0 mm | - | 291 W/m² | - |
| 1777834732 | 15.56° C | 36% | 1017.9 hPa | 0 mm | - | 691 W/m² | - |
| 1777834428 | 15° C | 37% | 1018 hPa | 0 mm | - | 743 W/m² | - |
| 1777834128 | 14.44° C | 39% | 1017.9 hPa | 0 mm | - | 772 W/m² | - |
| 1777833824 | 15° C | 39% | 1018 hPa | 0 mm | - | 354 W/m² | - |
| 1777833520 | 15° C | 37% | 1018.2 hPa | 0 mm | - | 671 W/m² | - |
| 1777833218 | 14.44° C | 38% | 1018.3 hPa | 0 mm | - | 391 W/m² | - |
| 1777832915 | 15° C | 38% | 1018.5 hPa | 0 mm | - | 340 W/m² | - |
| 1777832614 | 15° C | 37% | 1018 hPa | 0 mm | - | 739 W/m² | - |
| 1777832311 | 15° C | 38% | 1018.4 hPa | 0 mm | - | 220 W/m² | - |
| 1777832008 | 13.89° C | 38% | 1018.2 hPa | 0 mm | - | 713 W/m² | - |
| 1777831704 | 13.33° C | 39% | 1018.5 hPa | 0 mm | - | 730 W/m² | - |
| 1777831402 | 13.89° C | 39% | 1018.4 hPa | 0 mm | - | 551 W/m² | - |
| 1777831098 | 14.44° C | 40% | 1018.4 hPa | 0 mm | - | 374 W/m² | - |
| 1777830797 | 13.89° C | 41% | 1018.6 hPa | 0 mm | - | 809 W/m² | - |
| 1777830492 | 13.89° C | 40% | 1018.6 hPa | 0 mm | - | 241 W/m² | - |
| 1777830190 | 15° C | 38% | 1018.5 hPa | 0 mm | - | 734 W/m² | - |
* Rain latest hour (hover to see other rain measurements)
** Current wind speed in m/s (hover to see current wind gust speed)